KHII/HII METAR and TAF weather

Enter ICAO airport designator
Station Type Date Time Source
KHII METAR 2021/03/08 11:55 UTC NOAA

KHII 081155Z AUTO 31006KT 10SM CLR 19/M02 A2992 RMK AO2


Station Type Date Time Source
KHII Decoded METAR 2021/03/08 11:55 UTC NOAA

Station name not available
Mar 08, 2021 - 06:55 AM EST / 2021.03.08 1155 UTC
Wind: from the NW (310 degrees) at 7 MPH (6 KT):0
Visibility: 10 mile(s):0
Sky conditions: clear
Temperature: 66 F (19 C)
Dew Point: 28 F (-2 C)
Relative Humidity: 24%
Pressure (altimeter): 29.92 in. Hg (1013 hPa)
ob: KHII 081155Z AUTO 31006KT 10SM CLR 19/M02 A2992 RMK AO2
cycle: 12

Station Type Date Time Source
KHII TAF UTC NOAA

Error!

Example: see airport list